Time;durP1;ratioP1;P1;durP2;ratioP2;P2;SDS_P1;SDS_P2;PMS_P1;PMS_P2;Temp;Humidity;BMP_temperature;BMP_pressure;BME280_temperature;BME280_humidity;BME280_pressure;Samples;Min_cycle;Max_cycle;Signal;HPM_P1;HPM_P2
2022/09/29 15:28:31;;;;;;;2.85;1.33;;;;;;;19.73;78.16;99045.16;5079259;27;1650342;-67
2022/09/29 15:31:05;;;;;;;2.13;1.50;;;;;;;19.87;76.99;99055.63;5125693;28;20044;-68
2022/09/29 15:33:42;;;;;;;3.80;1.15;;;;;;;20.10;75.79;99065.00;5090141;28;20062;-68
2022/09/29 15:36:25;;;;;;;5.78;1.75;;;;;;;20.13;74.79;99086.41;5124789;28;20051;-68
2022/09/29 15:39:06;;;;;;;;;;;;;;;19.91;75.11;99093.72;5088511;28;20421;-69
2022/09/29 15:41:35;;;;;;;2.58;1.95;;;;;;;19.55;74.97;99100.44;5120440;28;19924;-69
2022/09/29 15:44:21;;;;;;;3.08;1.95;;;;;;;19.33;77.37;99111.28;5124424;28;20035;-69
2022/09/29 15:46:55;;;;;;;3.53;1.70;;;;;;;19.17;77.81;99125.31;5119405;27;20098;-69
2022/09/29 15:49:26;;;;;;;3.53;1.25;;;;;;;18.99;76.54;99111.16;5124488;28;20668;-69
2022/09/29 15:51:57;;;;;;;1.58;1.20;;;;;;;18.90;76.31;99111.44;5085311;28;20059;-68
2022/09/29 15:54:34;;;;;;;1.42;0.70;;;;;;;18.86;74.91;99120.88;5121826;27;20051;-68
2022/09/29 15:57:51;;;;;;;1.00;0.75;;;;;;;18.73;74.38;99115.50;5120372;27;20043;-67
2022/09/29 16:00:22;;;;;;;0.70;0.60;;;;;;;18.89;74.71;99120.94;5106326;27;20048;-68
2022/09/29 16:03:06;;;;;;;2.22;0.73;;;;;;;18.86;74.08;99107.78;5124965;28;20401;-68
2022/09/29 16:05:39;;;;;;;2.53;0.70;;;;;;;18.78;74.13;99111.63;5095177;28;20070;-69
2022/09/29 16:08:11;;;;;;;0.60;0.57;;;;;;;18.91;73.62;99114.97;5097684;28;20051;-68
2022/09/29 16:10:48;;;;;;;0.50;0.50;;;;;;;18.82;73.36;99111.69;5116272;28;20032;-69
2022/09/29 16:13:26;;;;;;;0.50;0.50;;;;;;;18.85;74.25;99106.19;5116498;28;20402;-70
2022/09/29 16:16:09;;;;;;;0.82;0.43;;;;;;;18.82;74.99;99104.16;5112788;28;20066;-70
2022/09/29 16:18:47;;;;;;;0.95;0.90;;;;;;;18.83;74.05;99094.69;5116172;28;20055;-69
2022/09/29 16:21:24;;;;;;;1.08;0.50;;;;;;;18.87;73.51;99092.75;5122922;28;20508;-70
2022/09/29 16:24:17;;;;;;;1.48;0.73;;;;;;;18.92;74.71;99094.44;5110439;28;20039;-69
2022/09/29 16:26:56;;;;;;;1.00;0.50;;;;;;;18.86;74.19;99080.09;5119402;28;20062;-70
2022/09/29 16:29:33;;;;;;;0.50;0.50;;;;;;;19.02;74.01;99093.78;5070883;28;20526;-70
2022/09/29 16:32:31;;;;;;;1.38;0.65;;;;;;;18.82;75.85;99095.84;5103217;28;20047;-70
2022/09/29 16:35:40;;;;;;;2.25;0.52;;;;;;;18.84;75.30;99101.03;5123652;28;20047;-68
2022/09/29 16:38:33;;;;;;;1.27;0.93;;;;;;;18.76;75.40;99103.69;5114782;28;20052;-69
2022/09/29 16:41:39;;;;;;;1.42;0.90;;;;;;;18.82;75.88;99103.38;5113336;28;20058;-69
2022/09/29 16:44:42;;;;;;;1.13;1.02;;;;;;;18.81;75.13;99113.66;5100685;28;20036;-69
2022/09/29 16:47:14;;;;;;;1.67;1.02;;;;;;;19.02;75.04;99113.19;5109928;28;20043;-69
2022/09/29 16:49:52;;;;;;;1.02;0.93;;;;;;;18.92;75.85;99116.59;5104655;28;20059;-69
2022/09/29 16:52:34;;;;;;;1.75;1.02;;;;;;;18.85;76.10;99110.94;5112093;28;20048;-69
2022/09/29 16:55:19;;;;;;;4.97;0.98;;;;;;;18.80;75.70;99118.41;5101158;28;20387;-69
2022/09/29 16:57:54;;;;;;;3.13;0.95;;;;;;;18.82;76.08;99118.03;5109439;28;20044;-69
2022/09/29 17:00:23;;;;;;;1.20;0.80;;;;;;;18.80;76.18;99118.41;5108046;28;20051;-68
2022/09/29 17:02:52;;;;;;;0.82;0.80;;;;;;;18.79;75.86;99116.81;5113016;28;20394;-69
2022/09/29 17:05:22;;;;;;;2.63;1.23;;;;;;;18.73;77.59;99118.28;5098190;28;20044;-69
2022/09/29 17:08:10;;;;;;;1.85;0.80;;;;;;;18.79;76.18;99118.78;5103701;27;20044;-68
2022/09/29 17:10:38;;;;;;;2.28;0.85;;;;;;;18.88;75.60;99122.09;5096711;28;20051;-69
2022/09/29 17:13:15;;;;;;;0.80;0.75;;;;;;;18.76;75.25;99114.78;5112268;28;20043;-69
2022/09/29 17:15:47;;;;;;;2.83;1.20;;;;;;;18.83;76.05;99121.59;5107806;28;20091;-69
2022/09/29 17:18:17;;;;;;;3.55;1.10;;;;;;;18.78;77.03;99108.88;5099981;28;20525;-69
2022/09/29 17:20:45;;;;;;;2.22;1.00;;;;;;;18.87;75.50;99114.16;5104457;28;20127;-69
2022/09/29 17:23:13;;;;;;;2.28;0.82;;;;;;;18.65;77.25;99111.84;5113169;28;20509;-69
2022/09/29 17:25:44;;;;;;;3.50;1.00;;;;;;;18.57;76.96;99110.09;5112519;28;20036;-69
2022/09/29 17:28:24;;;;;;;2.22;0.70;;;;;;;18.50;78.55;99118.31;5104808;28;20052;-68
2022/09/29 17:30:54;;;;;;;2.22;1.17;;;;;;;18.38;79.61;99116.53;5100880;28;20057;-69
2022/09/29 17:33:22;;;;;;;1.38;0.85;;;;;;;18.41;78.92;99129.63;5107597;28;20050;-69
2022/09/29 17:35:52;;;;;;;1.50;1.20;;;;;;;18.37;79.75;99142.59;5099741;28;20059;-69
2022/09/29 17:38:23;;;;;;;1.38;0.90;;;;;;;18.38;78.95;99141.47;5097210;28;20058;-69
2022/09/29 17:41:02;;;;;;;1.80;0.90;;;;;;;18.34;79.84;99157.19;5111993;28;20051;-70
2022/09/29 17:43:30;;;;;;;3.35;0.70;;;;;;;18.32;79.66;99157.56;5101670;28;20051;-68
2022/09/29 17:45:59;;;;;;;1.25;0.98;;;;;;;18.20;80.78;99155.78;5092210;28;20044;-68
2022/09/29 17:48:29;;;;;;;2.80;0.80;;;;;;;18.24;80.32;99162.16;5098773;28;20075;-68
2022/09/29 17:50:58;;;;;;;1.42;1.10;;;;;;;18.28;79.32;99167.75;5098840;28;20044;-68
2022/09/29 17:53:26;;;;;;;1.02;0.82;;;;;;;18.13;80.12;99169.47;5105728;28;20055;-68
2022/09/29 17:55:56;;;;;;;3.00;1.30;;;;;;;18.14;80.32;99173.84;5110366;28;20066;-69
2022/09/29 17:58:25;;;;;;;3.88;1.40;;;;;;;18.05;82.13;99176.00;5109235;28;20039;-68
2022/09/29 18:00:56;;;;;;;1.27;1.00;;;;;;;18.05;81.28;99176.00;5111759;28;20048;-69
2022/09/29 18:03:24;;;;;;;2.80;1.42;;;;;;;17.99;81.90;99178.28;5110759;28;20051;-69
2022/09/29 18:05:58;;;;;;;3.05;1.50;;;;;;;18.01;82.48;99189.78;5112073;28;20043;-69
2022/09/29 18:08:29;;;;;;;1.65;1.23;;;;;;;18.04;82.36;99191.81;5110544;28;20051;-70
2022/09/29 18:11:00;;;;;;;1.10;1.10;;;;;;;18.02;82.18;99182.28;5097768;28;20402;-69
2022/09/29 18:13:30;;;;;;;2.85;1.42;;;;;;;18.14;80.80;99190.47;5112082;28;20047;-69
2022/09/29 18:16:00;;;;;;;1.55;1.17;;;;;;;18.09;80.31;99193.53;5112660;28;20036;-70
2022/09/29 18:18:28;;;;;;;1.95;1.48;;;;;;;18.15;80.74;99188.47;5110955;28;20461;-69
2022/09/29 18:21:00;;;;;;;1.92;1.33;;;;;;;18.23;80.82;99202.09;5107805;28;20048;-69
2022/09/29 18:23:29;;;;;;;2.70;1.33;;;;;;;18.23;81.13;99195.78;5100803;28;20047;-69
2022/09/29 18:25:57;;;;;;;1.13;1.02;;;;;;;18.18;82.63;99193.31;5109330;28;20517;-69
2022/09/29 18:28:24;;;;;;;4.13;1.10;;;;;;;18.11;81.46;99205.03;5100633;28;20521;-70
2022/09/29 18:31:11;;;;;;;2.85;1.52;;;;;;;18.15;81.97;99211.44;5098959;28;20044;-70
2022/09/29 18:33:40;;;;;;;1.70;0.93;;;;;;;18.03;82.00;99214.34;5111676;28;20044;-69
2022/09/29 18:36:10;;;;;;;1.17;1.05;;;;;;;17.86;82.83;99202.53;5110350;28;20047;-69
2022/09/29 18:38:38;;;;;;;2.95;1.33;;;;;;;17.83;82.80;99206.81;5109311;28;20048;-69
2022/09/29 18:41:12;;;;;;;1.30;1.00;;;;;;;17.85;82.89;99207.25;5109785;28;20052;-69
2022/09/29 18:43:40;;;;;;;;;;;;;;;17.79;82.95;99221.75;5106531;28;20058;-69
2022/09/29 18:46:08;;;;;;;0.95;0.93;;;;;;;17.70;83.86;99221.94;5109094;28;20297;-70
2022/09/29 18:48:36;;;;;;;2.42;0.80;;;;;;;17.58;82.74;99217.34;5108214;28;20032;-69
2022/09/29 18:51:07;;;;;;;4.07;1.63;;;;;;;17.48;82.26;99218.69;5109658;28;20055;-70
2022/09/29 18:53:44;;;;;;;1.00;0.90;;;;;;;17.38;83.53;99211.75;5071426;28;20048;-70
2022/09/29 18:56:16;;;;;;;1.75;1.13;;;;;;;17.39;83.56;99220.84;5083943;28;20047;-70
2022/09/29 18:58:55;;;;;;;0.75;0.63;;;;;;;17.28;83.99;99217.84;5092959;28;20048;-71
2022/09/29 19:01:29;;;;;;;1.83;1.35;;;;;;;17.36;83.30;99225.16;5104623;28;20047;-71
2022/09/29 19:04:00;;;;;;;1.92;0.90;;;;;;;17.33;83.78;99231.38;5107851;28;20047;-71
2022/09/29 19:06:33;;;;;;;3.45;0.98;;;;;;;17.28;83.56;99234.44;5095373;28;20043;-71
2022/09/29 19:09:09;;;;;;;2.28;1.27;;;;;;;17.22;83.97;99235.84;5109234;28;20043;-70
2022/09/29 19:11:40;;;;;;;1.10;0.80;;;;;;;17.17;85.12;99245.22;5110845;28;20046;-71
2022/09/29 19:14:10;;;;;;;1.17;1.08;;;;;;;17.13;84.90;99245.16;5108124;28;20039;-70
2022/09/29 19:16:39;;;;;;;3.08;1.25;;;;;;;17.08;85.27;99250.94;5107514;28;20414;-70
2022/09/29 19:19:09;;;;;;;1.13;1.00;;;;;;;17.03;85.67;99253.97;5105303;28;20052;-70
2022/09/29 19:21:41;;;;;;;1.08;0.70;;;;;;;16.92;86.40;99250.91;5105802;28;20044;-70
2022/09/29 19:24:09;;;;;;;2.28;0.90;;;;;;;16.97;85.59;99267.22;5111008;28;20429;-70
2022/09/29 19:26:38;;;;;;;1.15;0.90;;;;;;;16.90;84.60;99250.44;5104173;28;20054;-69
2022/09/29 19:29:10;;;;;;;0.95;0.88;;;;;;;16.85;87.89;99251.53;5104827;28;20044;-69
2022/09/29 19:31:38;;;;;;;5.68;1.27;;;;;;;16.84;87.53;99262.91;5109580;28;20232;-70
2022/09/29 19:34:07;;;;;;;1.65;1.17;;;;;;;16.87;85.53;99260.25;5122371;28;20051;-70
2022/09/29 19:36:38;;;;;;;2.40;0.98;;;;;;;16.92;85.74;99270.25;5108559;28;20803;-70
2022/09/29 19:39:09;;;;;;;3.00;1.10;;;;;;;16.91;86.80;99272.22;5066868;28;20044;-70
2022/09/29 19:41:37;;;;;;;1.10;0.70;;;;;;;16.83;86.91;99269.59;5083118;28;20047;-70
2022/09/29 19:44:07;;;;;;;1.83;1.05;;;;;;;16.92;85.86;99259.19;5107451;28;20784;-71
2022/09/29 19:46:36;;;;;;;1.75;1.27;;;;;;;16.84;85.57;99255.44;5107554;28;20494;-71
2022/09/29 19:49:03;;;;;;;1.65;1.55;;;;;;;16.85;85.70;99262.56;5109026;28;20062;-71
2022/09/29 19:51:52;;;;;;;2.15;1.27;;;;;;;16.81;86.62;99261.66;5107438;28;20036;-71
2022/09/29 19:54:23;;;;;;;3.20;0.98;;;;;;;16.78;87.37;99267.91;5106313;28;20059;-71
2022/09/29 19:56:54;;;;;;;4.65;1.55;;;;;;;16.72;87.51;99270.13;5102951;28;20549;-70
2022/09/29 19:59:26;;;;;;;1.58;1.42;;;;;;;16.90;85.81;99269.78;5100241;28;20802;-70
2022/09/29 20:01:54;;;;;;;2.97;1.45;;;;;;;16.87;85.98;99274.06;5097886;28;20054;-71
2022/09/29 20:04:27;;;;;;;1.30;1.20;;;;;;;16.90;86.35;99276.13;5096347;28;20055;-70
2022/09/29 20:06:57;;;;;;;1.65;1.33;;;;;;;16.93;86.22;99278.16;5107544;28;20036;-70
2022/09/29 20:09:25;;;;;;;2.58;1.65;;;;;;;16.89;87.06;99271.78;5102219;28;20078;-70
2022/09/29 20:11:54;;;;;;;2.10;1.33;;;;;;;16.78;87.89;99273.44;5098584;28;20035;-70
2022/09/29 20:14:23;;;;;;;1.52;1.10;;;;;;;16.92;88.21;99279.34;5109329;28;20039;-69
2022/09/29 20:16:55;;;;;;;3.17;1.10;;;;;;;16.88;87.14;99277.63;5099533;28;20047;-70
2022/09/29 20:19:24;;;;;;;2.40;1.02;;;;;;;17.00;88.17;99285.84;5103389;28;20050;-71
2022/09/29 20:21:53;;;;;;;1.50;1.40;;;;;;;16.95;86.26;99282.56;5101889;28;20476;-70
2022/09/29 20:24:25;;;;;;;2.10;1.85;;;;;;;17.09;87.61;99293.19;5110127;28;20046;-71
2022/09/29 20:26:56;;;;;;;4.43;1.50;;;;;;;17.10;86.01;99298.38;5103925;28;20406;-70
2022/09/29 20:29:25;;;;;;;2.05;1.55;;;;;;;16.98;85.85;99290.13;5102917;28;20052;-69
2022/09/29 20:31:54;;;;;;;2.30;1.83;;;;;;;17.16;85.79;99299.69;5089100;28;20067;-70
2022/09/29 20:34:22;;;;;;;2.42;1.90;;;;;;;17.33;84.81;99293.03;5088214;28;20048;-70
2022/09/29 20:36:50;;;;;;;4.72;2.00;;;;;;;17.34;85.28;99304.88;5106266;28;20040;-70
2022/09/29 20:39:24;;;;;;;2.75;2.08;;;;;;;17.44;84.61;99309.88;5108774;28;20058;-71
2022/09/29 20:41:54;;;;;;;2.25;1.85;;;;;;;17.52;84.31;99323.88;5114774;28;20058;-71
2022/09/29 20:44:24;;;;;;;1.58;1.40;;;;;;;17.25;86.45;99329.16;5114614;28;20048;-71
2022/09/29 20:46:54;;;;;;;2.13;1.10;;;;;;;17.22;87.58;99338.13;5114131;28;20044;-71
2022/09/29 20:49:23;;;;;;;1.95;1.35;;;;;;;17.03;87.56;99339.63;5114796;28;20535;-72
2022/09/29 20:51:52;;;;;;;1.67;1.40;;;;;;;16.98;87.48;99342.63;5113449;28;20055;-70
2022/09/29 20:54:21;;;;;;;2.60;1.55;;;;;;;16.88;87.75;99360.53;5114696;28;20106;-69
2022/09/29 20:56:52;;;;;;;2.25;1.67;;;;;;;16.98;87.30;99354.50;5112350;28;20048;-70
2022/09/29 20:59:22;;;;;;;3.58;2.42;;;;;;;17.11;86.71;99362.75;5113771;28;20044;-70
2022/09/29 21:01:52;;;;;;;2.47;1.50;;;;;;;17.05;85.91;99368.53;5114866;28;20062;-70
2022/09/29 21:04:21;;;;;;;3.63;1.10;;;;;;;17.08;85.10;99372.56;5113901;28;20052;-70
2022/09/29 21:06:51;;;;;;;2.97;1.63;;;;;;;17.13;86.20;99377.00;5114434;28;20040;-72
2022/09/29 21:09:22;;;;;;;1.75;1.42;;;;;;;17.02;87.56;99382.22;5113911;28;20051;-71
2022/09/29 21:11:52;;;;;;;2.15;1.48;;;;;;;17.04;88.08;99394.56;5113170;28;20051;-68
2022/09/29 21:14:23;;;;;;;5.60;1.40;;;;;;;16.94;88.56;99392.28;5113891;28;20058;-70
2022/09/29 21:16:51;;;;;;;1.85;1.38;;;;;;;16.76;89.79;99397.28;5112690;28;20075;-70
2022/09/29 21:19:25;;;;;;;2.30;1.27;;;;;;;16.66;90.04;99387.53;5113768;28;20071;-70
2022/09/29 21:21:56;;;;;;;1.33;1.23;;;;;;;16.63;89.91;99405.63;5106142;27;20044;-70
2022/09/29 21:24:24;;;;;;;1.23;1.05;;;;;;;16.62;89.46;99403.22;5084214;28;20043;-70
2022/09/29 21:26:55;;;;;;;2.90;1.00;;;;;;;16.53;89.81;99403.38;5112400;28;20379;-70
2022/09/29 21:29:23;;;;;;;2.35;1.42;;;;;;;16.51;89.24;99395.44;5109073;28;20051;-70
2022/09/29 21:31:51;;;;;;;1.17;0.93;;;;;;;16.53;87.80;99398.63;5113617;27;20048;-70
2022/09/29 21:34:19;;;;;;;1.15;0.63;;;;;;;16.64;86.85;99396.19;5110675;28;20063;-71
2022/09/29 21:36:48;;;;;;;0.60;0.60;;;;;;;16.57;86.12;99395.19;5108433;28;20505;-70
2022/09/29 21:39:16;;;;;;;0.63;0.50;;;;;;;16.58;86.74;99396.78;5111413;28;20055;-70
2022/09/29 21:41:46;;;;;;;0.60;0.60;;;;;;;16.59;87.05;99410.25;5103856;27;20047;-70
2022/09/29 21:44:18;;;;;;;3.47;0.65;;;;;;;16.45;86.49;99409.81;5106203;28;20607;-70
2022/09/29 21:46:48;;;;;;;0.73;0.73;;;;;;;16.43;87.48;99412.13;5106609;28;20039;-70
2022/09/29 21:49:19;;;;;;;0.75;0.75;;;;;;;16.38;87.53;99408.44;5109342;28;20039;-70
2022/09/29 21:51:49;;;;;;;1.30;0.50;;;;;;;16.35;88.51;99411.91;5113371;28;20478;-70
2022/09/29 21:54:19;;;;;;;4.05;1.30;;;;;;;16.39;88.80;99423.84;5105689;28;20052;-70
2022/09/29 21:56:48;;;;;;;0.70;0.68;;;;;;;16.24;89.95;99421.81;5100385;28;20498;-70
2022/09/29 21:59:19;;;;;;;1.58;0.63;;;;;;;16.25;90.82;99417.91;5109418;28;20490;-71
2022/09/29 22:01:47;;;;;;;0.55;0.55;;;;;;;16.27;91.06;99410.06;5109326;28;20044;-69
2022/09/29 22:04:17;;;;;;;2.28;0.70;;;;;;;16.28;89.77;99422.72;5068022;28;20048;-69
2022/09/29 22:06:48;;;;;;;3.83;0.80;;;;;;;16.28;91.03;99428.25;5112620;28;20508;-69
2022/09/29 22:09:19;;;;;;;0.80;0.60;;;;;;;16.42;89.06;99438.13;5108390;28;20066;-71
2022/09/29 22:11:48;;;;;;;1.30;0.73;;;;;;;16.55;87.70;99459.03;5095497;27;20489;-69
2022/09/29 22:14:17;;;;;;;0.47;0.47;;;;;;;16.58;87.18;99460.31;5074839;28;20410;-70
2022/09/29 22:16:46;;;;;;;0.73;0.70;;;;;;;16.57;85.96;99450.41;5101015;27;20040;-71
2022/09/29 22:19:34;;;;;;;0.68;0.50;;;;;;;16.63;85.97;99449.03;5110627;28;20394;-69
2022/09/29 22:22:02;;;;;;;0.95;0.60;;;;;;;16.64;85.07;99456.16;5110485;28;20414;-70
2022/09/29 22:24:30;;;;;;;0.65;0.43;;;;;;;16.58;84.76;99450.06;5111288;28;20050;-69
2022/09/29 22:26:59;;;;;;;0.68;0.60;;;;;;;16.60;83.54;99464.31;5110518;28;20051;-69
2022/09/29 22:29:27;;;;;;;0.60;0.38;;;;;;;16.55;84.22;99463.75;5107287;28;20043;-70
2022/09/29 22:31:57;;;;;;;0.47;0.47;;;;;;;16.58;84.27;99477.69;5109625;28;20065;-70
2022/09/29 22:34:25;;;;;;;1.13;0.40;;;;;;;16.44;86.43;99468.94;5096653;28;20036;-70
2022/09/29 22:36:53;;;;;;;0.45;0.40;;;;;;;16.42;85.33;99466.53;5108665;28;20043;-70
2022/09/29 22:39:25;;;;;;;0.68;0.60;;;;;;;16.36;86.32;99471.50;5111349;28;20051;-70
2022/09/29 22:41:53;;;;;;;0.90;0.82;;;;;;;16.47;85.30;99477.34;5111321;28;20043;-70
2022/09/29 22:44:21;;;;;;;1.05;0.60;;;;;;;16.34;85.35;99471.06;5113001;27;20078;-70
2022/09/29 22:46:49;;;;;;;0.43;0.43;;;;;;;16.16;85.17;99469.66;5111472;28;20052;-70
2022/09/29 22:49:17;;;;;;;0.93;0.57;;;;;;;16.15;86.24;99459.75;5108308;28;20050;-70
2022/09/29 22:51:45;;;;;;;0.95;0.70;;;;;;;16.22;85.36;99463.56;5110746;28;20050;-70
2022/09/29 22:54:14;;;;;;;1.05;0.63;;;;;;;16.34;85.74;99465.53;5099716;28;20409;-70
2022/09/29 22:56:42;;;;;;;0.90;0.80;;;;;;;16.58;85.20;99461.13;5095289;28;20047;-71
2022/09/29 22:59:12;;;;;;;1.17;0.55;;;;;;;16.41;85.07;99458.63;5102294;28;20475;-70
2022/09/29 23:01:40;;;;;;;0.50;0.40;;;;;;;16.38;85.75;99455.38;5097339;28;20047;-70
2022/09/29 23:04:08;;;;;;;1.02;0.30;;;;;;;16.43;85.80;99453.53;5098147;28;20055;-70
2022/09/29 23:06:38;;;;;;;1.00;0.50;;;;;;;16.39;87.16;99451.47;5110602;28;20050;-70
2022/09/29 23:09:08;;;;;;;1.15;0.70;;;;;;;16.43;86.25;99442.50;5100173;28;20040;-70
2022/09/29 23:11:37;;;;;;;2.35;0.95;;;;;;;16.33;86.80;99449.31;5099269;28;20071;-70
2022/09/29 23:14:07;;;;;;;0.90;0.80;;;;;;;16.22;88.82;99455.28;5104872;28;20050;-70
2022/09/29 23:16:35;;;;;;;1.08;0.93;;;;;;;16.21;89.09;99445.41;5103160;28;20357;-70
2022/09/29 23:19:03;;;;;;;2.58;0.80;;;;;;;16.45;88.21;99448.47;5104541;28;20055;-70
2022/09/29 23:21:32;;;;;;;0.90;0.82;;;;;;;16.46;88.68;99456.41;5101191;28;20195;-70
2022/09/29 23:24:00;;;;;;;1.65;1.13;;;;;;;16.54;88.36;99457.44;5098709;28;20044;-70
2022/09/29 23:26:29;;;;;;;1.00;0.90;;;;;;;16.43;89.29;99461.81;5103367;28;20071;-70
2022/09/29 23:28:58;;;;;;;2.72;1.10;;;;;;;16.41;89.28;99453.88;5107927;28;20048;-70
2022/09/29 23:31:26;;;;;;;1.55;1.13;;;;;;;16.40;90.14;99460.56;5106410;28;20048;-70
2022/09/29 23:33:57;;;;;;;1.35;1.20;;;;;;;16.34;90.48;99453.66;5106726;28;20048;-70
2022/09/29 23:36:27;;;;;;;1.30;1.20;;;;;;;16.46;88.97;99455.59;5094378;28;20493;-70
2022/09/29 23:39:12;;;;;;;3.63;1.77;;;;;;;16.33;89.24;99458.38;5110940;28;20078;-70
2022/09/29 23:41:46;;;;;;;1.42;1.15;;;;;;;16.04;91.63;99457.47;5101390;28;20401;-70
2022/09/29 23:44:16;;;;;;;2.33;1.47;;;;;;;16.14;91.11;99458.16;5103054;28;20043;-69
2022/09/29 23:46:45;;;;;;;2.30;1.45;;;;;;;16.12;91.07;99462.06;5097304;28;20044;-70
2022/09/29 23:49:15;;;;;;;2.97;2.10;;;;;;;16.01;91.73;99460.09;5109600;28;20043;-70
2022/09/29 23:51:49;;;;;;;3.33;1.55;;;;;;;16.19;91.49;99464.25;5113294;28;20047;-70
2022/09/29 23:54:20;;;;;;;3.72;1.70;;;;;;;15.92;93.05;99468.47;5099838;28;20122;-70
2022/09/29 23:56:49;;;;;;;2.85;1.70;;;;;;;16.10;92.13;99466.31;5112691;28;20040;-70
2022/09/29 23:59:18;;;;;;;4.32;1.38;;;;;;;15.90;94.39;99473.53;5109363;28;20048;-70
